createdAt,value
2022-08-05T00:00:16.170Z,84.97
2022-08-05T00:02:43.846Z,85.38
2022-08-05T00:06:01.457Z,86.55
2022-08-05T00:08:05.319Z,86.63
2022-08-05T00:10:51.547Z,85.95
2022-08-05T00:13:18.603Z,84.84
2022-08-05T00:15:56.001Z,84.71
2022-08-05T00:18:24.894Z,84.33
2022-08-05T00:20:51.553Z,84.28
2022-08-05T00:23:30.806Z,84.19
2022-08-05T00:26:05.823Z,83.90
2022-08-05T00:28:32.946Z,84.22
2022-08-05T00:31:02.762Z,84.43
2022-08-05T00:34:56.279Z,84.51
2022-08-05T00:37:11.271Z,84.51
2022-08-05T00:39:04.589Z,84.22
2022-08-05T00:41:51.689Z,83.71
2022-08-05T00:44:20.893Z,83.65
2022-08-05T00:46:54.093Z,84.27
2022-08-05T00:49:28.241Z,83.83
2022-08-05T00:51:59.450Z,83.98
2022-08-05T00:54:27.945Z,84.02
2022-08-05T00:56:54.586Z,83.71
2022-08-05T00:59:21.044Z,83.96
2022-08-05T01:01:48.492Z,83.84
2022-08-05T01:04:15.815Z,84.13
2022-08-05T01:06:47.897Z,83.77
2022-08-05T01:09:19.870Z,83.86
2022-08-05T01:11:53.617Z,83.82
2022-08-05T01:14:41.526Z,83.77
2022-08-05T01:17:17.681Z,83.88
2022-08-05T01:20:02.341Z,83.23
2022-08-05T01:22:42.524Z,83.68
2022-08-05T01:25:22.098Z,83.54
2022-08-05T01:28:08.824Z,83.71
2022-08-05T01:30:39.806Z,83.27
2022-08-05T01:33:25.245Z,83.31
2022-08-05T01:35:57.481Z,83.63
2022-08-05T01:38:29.426Z,84.16
2022-08-05T01:41:02.270Z,83.92
2022-08-05T01:43:29.918Z,83.99
2022-08-05T01:45:58.787Z,83.81
2022-08-05T01:48:36.321Z,83.64
2022-08-05T01:51:12.016Z,83.59
2022-08-05T01:53:57.133Z,84.23
2022-08-05T01:58:11.969Z,84.36
2022-08-05T01:59:20.149Z,84.87
2022-08-05T02:01:50.134Z,85.20
2022-08-05T02:04:20.154Z,85.68
2022-08-05T02:06:47.893Z,85.33
2022-08-05T02:09:16.314Z,85.72
2022-08-05T02:11:58.093Z,86.86
2022-08-05T02:14:31.896Z,87.14
2022-08-05T02:17:29.724Z,87.49
2022-08-05T02:20:11.315Z,88.43
2022-08-05T02:22:43.465Z,89.06
2022-08-05T02:25:18.264Z,89.12
2022-08-05T02:27:58.927Z,88.32
2022-08-05T02:30:32.376Z,88.78
2022-08-05T02:33:02.704Z,89.43
2022-08-05T02:35:33.190Z,89.23
2022-08-05T02:38:05.186Z,88.60
2022-08-05T02:40:37.483Z,88.06
2022-08-05T02:43:04.744Z,88.52
2022-08-05T02:45:52.688Z,88.20
2022-08-05T02:48:29.186Z,87.76
2022-08-05T02:50:59.541Z,87.66
2022-08-05T02:53:26.799Z,87.65
2022-08-05T02:55:59.943Z,88.06
2022-08-05T02:58:30.262Z,90.15
2022-08-05T03:00:59.260Z,92.27
2022-08-05T03:03:28.611Z,93.16
2022-08-05T03:06:57.025Z,93.71
2022-08-05T03:08:52.304Z,95.10
2022-08-05T03:11:55.280Z,95.75
2022-08-05T03:14:13.470Z,96.19
2022-08-05T03:16:40.921Z,96.69
2022-08-05T03:19:16.856Z,97.13
2022-08-05T03:21:48.899Z,97.49
2022-08-05T03:24:18.162Z,97.79
2022-08-05T03:26:56.460Z,98.40
2022-08-05T03:29:24.027Z,99.23
2022-08-05T03:31:55.813Z,99.16
2022-08-05T03:34:24.838Z,99.69
2022-08-05T03:36:53.617Z,99.99
2022-08-05T03:39:27.030Z,99.76
2022-08-05T03:41:56.113Z,100.00
2022-08-05T03:44:23.462Z,100.00
2022-08-05T03:46:50.025Z,100.00
2022-08-05T03:49:16.652Z,100.00
2022-08-05T03:52:48.707Z,100.00
2022-08-05T03:56:05.718Z,99.93
2022-08-05T03:57:50.436Z,99.42
2022-08-05T04:00:17.286Z,100.00
2022-08-05T04:02:57.807Z,100.00
2022-08-05T04:05:33.152Z,100.00
2022-08-05T04:08:03.398Z,100.00
2022-08-05T04:10:37.925Z,100.00
2022-08-05T04:13:06.454Z,100.00
2022-08-05T04:15:35.892Z,100.00
2022-08-05T04:18:09.395Z,100.00
2022-08-05T04:20:36.525Z,99.67
2022-08-05T04:23:03.498Z,99.77
2022-08-05T04:25:49.425Z,100.00
2022-08-05T04:28:17.258Z,100.00
2022-08-05T04:30:44.374Z,100.00
2022-08-05T04:33:11.759Z,100.00
2022-08-05T04:36:10.667Z,100.00
2022-08-05T04:38:39.751Z,99.89
2022-08-05T04:41:07.517Z,100.00
2022-08-05T04:43:37.241Z,100.00
2022-08-05T04:46:04.580Z,100.00
2022-08-05T04:48:32.010Z,100.00
2022-08-05T04:51:02.654Z,100.00
2022-08-05T04:53:36.549Z,100.00
2022-08-05T04:56:33.192Z,100.00
2022-08-05T04:58:55.923Z,100.00
2022-08-05T05:02:05.740Z,100.00
2022-08-05T05:04:09.489Z,100.00
2022-08-05T05:06:40.441Z,100.00
2022-08-05T05:09:14.078Z,100.00
2022-08-05T05:11:54.533Z,98.93
2022-08-05T05:14:27.877Z,97.96
2022-08-05T05:17:02.175Z,97.74
2022-08-05T05:19:37.134Z,97.76
2022-08-05T05:22:24.364Z,97.38
2022-08-05T05:24:56.787Z,96.72
2022-08-05T05:27:41.372Z,96.81
2022-08-05T05:30:29.485Z,96.18
2022-08-05T05:33:00.933Z,95.29
2022-08-05T05:35:37.788Z,95.32
2022-08-05T05:38:09.438Z,94.79
2022-08-05T05:40:48.093Z,94.04
2022-08-05T05:43:16.770Z,93.23
2022-08-05T05:45:54.645Z,93.11
2022-08-05T05:48:27.542Z,93.21
2022-08-05T05:50:54.451Z,92.54
2022-08-05T05:53:22.786Z,92.85
2022-08-05T05:55:51.590Z,92.15
2022-08-05T05:58:31.913Z,92.07
2022-08-05T06:01:02.231Z,91.77
2022-08-05T06:03:53.830Z,91.34
2022-08-05T06:06:28.017Z,89.56
2022-08-05T06:08:58.492Z,88.90
2022-08-05T06:11:26.045Z,87.20
2022-08-05T06:13:54.184Z,86.74
2022-08-05T06:16:28.784Z,85.23
2022-08-05T06:19:01.964Z,85.03
2022-08-05T06:21:35.865Z,84.95
2022-08-05T06:24:04.689Z,85.16
2022-08-05T06:26:33.932Z,83.77
2022-08-05T06:29:03.462Z,83.31
2022-08-05T06:31:48.062Z,83.30
2022-08-05T06:34:17.308Z,81.13
2022-08-05T06:36:57.136Z,80.65
2022-08-05T06:39:27.142Z,80.95
2022-08-05T06:41:58.811Z,81.21
2022-08-05T06:44:25.982Z,81.30
2022-08-05T06:46:52.793Z,81.92
2022-08-05T06:49:21.479Z,82.24
2022-08-05T06:52:07.512Z,80.41
2022-08-05T06:54:54.018Z,80.31
2022-08-05T06:58:03.158Z,81.74
2022-08-05T07:00:07.782Z,81.36
2022-08-05T07:02:46.806Z,81.45
2022-08-05T07:05:18.853Z,80.01
2022-08-05T07:07:48.899Z,80.24
2022-08-05T07:10:16.382Z,80.91
2022-08-05T07:13:01.898Z,78.96
2022-08-05T07:16:01.950Z,77.36
2022-08-05T07:18:31.915Z,75.13
2022-08-05T07:20:58.810Z,73.63
2022-08-05T07:23:32.086Z,73.39
2022-08-05T07:25:58.565Z,72.78
2022-08-05T07:28:25.333Z,73.62
2022-08-05T07:30:55.036Z,72.61
2022-08-05T07:33:37.074Z,71.26
2022-08-05T07:36:21.157Z,71.21
2022-08-05T07:38:48.936Z,69.46
2022-08-05T07:42:13.039Z,67.78
2022-08-05T07:44:14.323Z,71.38
2022-08-05T07:46:48.216Z,73.21
2022-08-05T07:49:16.123Z,74.47
2022-08-05T07:51:52.994Z,76.54
2022-08-05T07:54:31.555Z,76.14
2022-08-05T07:57:41.567Z,75.19
2022-08-05T07:59:50.504Z,74.39
2022-08-05T08:02:18.180Z,73.82
2022-08-05T08:04:49.169Z,73.23
2022-08-05T08:07:18.248Z,72.19
2022-08-05T08:09:50.160Z,70.13
2022-08-05T08:12:33.376Z,68.16
2022-08-05T08:15:05.439Z,68.09
2022-08-05T08:17:40.907Z,67.02
2022-08-05T08:20:42.878Z,64.99
2022-08-05T08:23:07.451Z,63.88
2022-08-05T08:25:59.177Z,63.15
2022-08-05T08:28:36.731Z,62.28
2022-08-05T08:31:17.390Z,63.36
2022-08-05T08:33:44.526Z,61.48
2022-08-05T08:36:38.279Z,61.60
2022-08-05T08:38:57.736Z,60.65
2022-08-05T08:41:51.945Z,60.43
2022-08-05T08:45:16.986Z,60.12
2022-08-05T08:47:47.651Z,61.94
2022-08-05T08:50:06.160Z,63.34
2022-08-05T08:52:56.783Z,63.78
2022-08-05T08:56:02.444Z,63.62
2022-08-05T08:58:12.976Z,58.72
2022-08-05T09:00:40.370Z,55.74
2022-08-05T09:03:09.107Z,56.72
2022-08-05T09:05:38.520Z,55.57
2022-08-05T09:08:26.778Z,54.83
2022-08-05T09:10:54.605Z,51.96
2022-08-05T09:13:21.475Z,51.67
2022-08-05T09:15:51.240Z,51.34
2022-08-05T09:18:18.351Z,55.46
2022-08-05T09:20:45.822Z,57.14
2022-08-05T09:23:18.784Z,57.67
2022-08-05T09:26:02.659Z,57.87
2022-08-05T09:28:34.506Z,56.31
2022-08-05T09:31:43.665Z,56.25
2022-08-05T09:33:54.874Z,59.05
2022-08-05T09:36:27.752Z,56.86
2022-08-05T09:39:18.144Z,55.83
2022-08-05T09:41:56.203Z,57.02
2022-08-05T09:44:35.448Z,52.51
2022-08-05T09:47:12.798Z,54.36
2022-08-05T09:50:01.425Z,53.53
2022-08-05T09:52:32.030Z,53.69
2022-08-05T09:55:06.305Z,54.23
2022-08-05T09:57:54.634Z,56.73
2022-08-05T10:00:25.868Z,55.91
2022-08-05T10:02:54.725Z,53.39
2022-08-05T10:05:26.930Z,52.39
2022-08-05T10:08:35.538Z,52.70
2022-08-05T10:10:54.205Z,54.02
2022-08-05T10:13:31.636Z,53.51
2022-08-05T10:16:33.863Z,52.46
2022-08-05T10:19:01.876Z,55.20
2022-08-05T10:21:40.130Z,54.34
2022-08-05T10:24:13.542Z,51.44
2022-08-05T10:26:51.893Z,50.90
2022-08-05T10:29:24.122Z,52.56
2022-08-05T10:32:51.846Z,52.08
2022-08-05T10:34:57.530Z,52.67
2022-08-05T10:37:44.348Z,50.71
2022-08-05T10:40:30.156Z,47.83
2022-08-05T10:43:07.241Z,47.91
2022-08-05T10:45:42.118Z,47.40
2022-08-05T10:48:52.518Z,46.29
2022-08-05T10:51:23.221Z,47.21
2022-08-05T10:54:01.900Z,49.72
2022-08-05T10:56:49.401Z,44.57
2022-08-05T11:00:02.640Z,45.00
2022-08-05T11:02:37.446Z,45.97
2022-08-05T11:05:08.768Z,48.00
2022-08-05T11:08:02.830Z,43.13
2022-08-05T11:10:36.960Z,41.58
2022-08-05T11:13:06.618Z,40.34
2022-08-05T11:16:00.894Z,41.30
2022-08-05T11:18:34.225Z,41.19
2022-08-05T11:21:02.876Z,41.28
2022-08-05T11:24:05.020Z,39.81
2022-08-05T11:26:29.181Z,40.17
2022-08-05T11:29:11.958Z,40.22
2022-08-05T11:31:54.202Z,40.58
2022-08-05T11:34:52.037Z,39.92
2022-08-05T11:38:28.004Z,39.65
2022-08-05T11:41:03.410Z,40.04
2022-08-05T11:44:05.515Z,40.10
2022-08-05T11:46:58.647Z,40.19
2022-08-05T11:49:27.611Z,40.39
2022-08-05T11:51:54.387Z,39.72
2022-08-05T11:54:33.525Z,36.56
2022-08-05T11:57:08.701Z,38.08
2022-08-05T11:59:50.243Z,38.96
2022-08-05T12:02:23.856Z,38.00
2022-08-05T12:04:59.505Z,37.50
2022-08-05T12:08:07.899Z,36.15
2022-08-05T12:10:13.813Z,37.65
2022-08-05T12:12:40.354Z,37.89
2022-08-05T12:15:37.974Z,38.11
2022-08-05T12:18:10.704Z,39.11
2022-08-05T12:20:38.783Z,39.47
2022-08-05T12:23:12.006Z,40.05
2022-08-05T12:25:56.815Z,38.05
2022-08-05T12:28:34.027Z,38.99
2022-08-05T12:31:02.399Z,40.04
2022-08-05T12:33:36.768Z,39.14
2022-08-05T12:36:09.514Z,39.50
2022-08-05T12:38:39.643Z,39.38
2022-08-05T12:41:14.576Z,39.68
2022-08-05T12:44:01.309Z,41.59
2022-08-05T12:46:31.345Z,41.10
2022-08-05T12:49:05.865Z,40.67
2022-08-05T12:52:13.649Z,38.85
2022-08-05T12:54:37.169Z,38.74
2022-08-05T12:57:09.220Z,38.42
2022-08-05T13:01:57.150Z,40.00
2022-08-05T13:02:42.274Z,38.28
2022-08-05T13:05:14.698Z,41.05
2022-08-05T13:07:59.880Z,38.81
2022-08-05T13:10:28.762Z,38.85
2022-08-05T13:12:58.490Z,38.14
2022-08-05T13:15:42.076Z,37.49
2022-08-05T13:18:19.418Z,37.75
2022-08-05T13:20:46.500Z,37.61
2022-08-05T13:23:12.970Z,39.29
2022-08-05T13:25:52.057Z,38.44
2022-08-05T13:28:25.729Z,37.52
2022-08-05T13:30:53.380Z,37.25
2022-08-05T13:34:23.398Z,36.74
2022-08-05T13:36:10.129Z,36.88
2022-08-05T13:38:38.496Z,38.75
2022-08-05T13:41:09.705Z,36.82
2022-08-05T13:43:45.064Z,37.04
2022-08-05T13:46:50.985Z,35.64
2022-08-05T13:49:09.865Z,36.44
2022-08-05T13:51:41.070Z,35.53
2022-08-05T13:54:11.984Z,35.05
2022-08-05T13:56:50.237Z,34.93
2022-08-05T13:59:24.408Z,37.27
2022-08-05T14:01:57.691Z,36.89
2022-08-05T14:04:49.922Z,37.29
2022-08-05T14:07:59.681Z,36.38
2022-08-05T14:10:28.802Z,35.67
2022-08-05T14:12:57.246Z,37.67
2022-08-05T14:16:05.083Z,38.01
2022-08-05T14:18:14.612Z,37.54
2022-08-05T14:20:47.074Z,36.64
2022-08-05T14:23:13.966Z,36.44
2022-08-05T14:25:54.277Z,36.31
2022-08-05T14:28:26.134Z,35.66
2022-08-05T14:30:53.577Z,34.83
2022-08-05T14:33:22.604Z,34.71
2022-08-05T14:35:51.871Z,36.23
2022-08-05T14:38:31.833Z,36.82
2022-08-05T14:41:05.772Z,35.84
2022-08-05T14:43:58.911Z,34.59
2022-08-05T14:46:20.179Z,34.16
2022-08-05T14:48:49.326Z,31.64
2022-08-05T14:51:17.686Z,32.10
2022-08-05T14:53:44.994Z,31.59
2022-08-05T14:56:13.343Z,32.84
2022-08-05T14:58:47.724Z,31.76
2022-08-05T15:01:47.298Z,32.28
2022-08-05T15:04:09.940Z,30.98
2022-08-05T15:06:38.582Z,30.49
2022-08-05T15:09:07.533Z,29.99
2022-08-05T15:11:51.388Z,29.45
2022-08-05T15:14:35.704Z,29.74
2022-08-05T15:17:14.549Z,30.61
2022-08-05T15:19:55.210Z,30.87
2022-08-05T15:22:21.966Z,31.14
2022-08-05T15:24:54.148Z,30.72
2022-08-05T15:27:20.705Z,30.71
2022-08-05T15:29:47.192Z,31.09
2022-08-05T15:32:16.480Z,31.54
2022-08-05T15:34:43.296Z,32.40
2022-08-05T15:37:15.547Z,32.36
2022-08-05T15:41:04.619Z,33.57
2022-08-05T15:42:55.103Z,32.99
2022-08-05T15:45:17.149Z,33.80
2022-08-05T15:47:45.971Z,33.02
2022-08-05T15:50:15.488Z,34.04
2022-08-05T15:52:53.046Z,33.09
2022-08-05T15:55:24.867Z,33.71
2022-08-05T15:58:09.401Z,33.89
2022-08-05T16:00:56.947Z,34.01
2022-08-05T16:03:29.608Z,33.80
2022-08-05T16:05:59.289Z,33.46
2022-08-05T16:08:30.756Z,33.97
2022-08-05T16:10:58.293Z,34.85
2022-08-05T16:13:34.188Z,35.23
2022-08-05T16:16:05.110Z,35.72
2022-08-05T16:18:33.056Z,35.46
2022-08-05T16:21:04.345Z,36.78
2022-08-05T16:23:33.121Z,36.83
2022-08-05T16:26:18.181Z,36.25
2022-08-05T16:28:44.686Z,36.36
2022-08-05T16:31:11.189Z,35.75
2022-08-05T16:33:41.709Z,34.63
2022-08-05T16:36:09.102Z,34.98
2022-08-05T16:38:35.783Z,36.61
2022-08-05T16:42:12.129Z,36.65
2022-08-05T16:43:49.312Z,37.87
2022-08-05T16:46:24.671Z,38.51
2022-08-05T16:48:51.543Z,39.35
2022-08-05T16:51:19.108Z,39.73
2022-08-05T16:54:05.613Z,38.70
2022-08-05T16:56:35.166Z,37.78
2022-08-05T16:59:07.724Z,36.95
2022-08-05T17:01:53.543Z,36.49
2022-08-05T17:04:21.960Z,36.29
2022-08-05T17:06:53.133Z,36.42
2022-08-05T17:09:20.461Z,36.56
2022-08-05T17:11:48.761Z,37.23
2022-08-05T17:14:34.122Z,37.61
2022-08-05T17:17:02.607Z,38.65
2022-08-05T17:19:29.257Z,39.27
2022-08-05T17:21:57.156Z,40.09
2022-08-05T17:24:35.197Z,41.01
2022-08-05T17:27:07.889Z,40.89
2022-08-05T17:29:41.038Z,42.37
2022-08-05T17:32:17.268Z,42.96
2022-08-05T17:34:47.683Z,41.94
2022-08-05T17:37:40.743Z,42.96
2022-08-05T17:40:02.910Z,43.02
2022-08-05T17:42:30.110Z,42.48
2022-08-05T17:44:59.432Z,43.18
2022-08-05T17:47:27.209Z,43.33
2022-08-05T17:50:04.016Z,42.73
2022-08-05T17:52:53.166Z,42.83
2022-08-05T17:55:22.151Z,42.50
2022-08-05T17:57:50.244Z,42.45
2022-08-05T18:00:17.454Z,42.59
2022-08-05T18:02:46.726Z,42.59
2022-08-05T18:05:16.793Z,42.94
2022-08-05T18:07:44.529Z,43.38
2022-08-05T18:10:11.856Z,43.85
2022-08-05T18:12:47.570Z,44.71
2022-08-05T18:15:14.213Z,44.50
2022-08-05T18:17:59.067Z,44.79
2022-08-05T18:20:29.267Z,45.31
2022-08-05T18:22:58.614Z,45.73
2022-08-05T18:25:33.192Z,46.19
2022-08-05T18:28:01.703Z,46.41
2022-08-05T18:30:32.263Z,48.73
2022-08-05T18:33:00.452Z,50.31
2022-08-05T18:36:01.316Z,51.77
2022-08-05T18:38:19.065Z,53.16
2022-08-05T18:41:53.495Z,54.90
2022-08-05T18:43:37.928Z,55.57
2022-08-05T18:46:09.784Z,57.10
2022-08-05T18:48:41.337Z,58.06
2022-08-05T18:52:02.627Z,59.83
2022-08-05T18:54:13.385Z,61.85
2022-08-05T18:56:40.452Z,61.77
2022-08-05T18:59:43.961Z,61.11
2022-08-05T19:01:56.940Z,61.84
2022-08-05T19:04:25.537Z,62.39
2022-08-05T19:06:53.523Z,62.88
2022-08-05T19:09:20.601Z,63.23
2022-08-05T19:12:00.479Z,63.45
2022-08-05T19:14:37.843Z,63.53
2022-08-05T19:17:15.181Z,63.91
2022-08-05T19:19:46.800Z,64.17
2022-08-05T19:22:17.170Z,65.12
2022-08-05T19:24:54.392Z,66.16
2022-08-05T19:27:22.923Z,66.53
2022-08-05T19:29:49.980Z,67.93
2022-08-05T19:32:16.505Z,68.07
2022-08-05T19:34:55.275Z,67.55
2022-08-05T19:37:29.857Z,67.30
2022-08-05T19:40:01.889Z,67.68
2022-08-05T19:42:35.502Z,67.14
2022-08-05T19:45:02.887Z,67.28
2022-08-05T19:47:33.145Z,67.36
2022-08-05T19:50:01.069Z,67.37
2022-08-05T19:52:31.533Z,66.35
2022-08-05T19:55:00.395Z,65.71
2022-08-05T19:57:48.984Z,66.06
2022-08-05T20:00:20.710Z,66.84
2022-08-05T20:02:47.443Z,67.53
2022-08-05T20:05:24.052Z,68.77
2022-08-05T20:07:55.048Z,68.75
2022-08-05T20:10:25.098Z,68.37
2022-08-05T20:12:51.809Z,68.51
2022-08-05T20:15:48.058Z,68.51
2022-08-05T20:18:10.989Z,68.13
2022-08-05T20:20:55.230Z,68.46
2022-08-05T20:23:23.794Z,67.70
2022-08-05T20:26:07.848Z,67.34
2022-08-05T20:28:34.348Z,67.64
2022-08-05T20:31:03.543Z,68.31
2022-08-05T20:33:32.994Z,68.45
2022-08-05T20:36:02.165Z,68.59
2022-08-05T20:38:31.381Z,68.97
2022-08-05T20:41:04.479Z,69.03
2022-08-05T20:43:59.825Z,69.21
2022-08-05T20:46:25.044Z,69.57
2022-08-05T20:48:52.186Z,69.75
2022-08-05T20:51:18.741Z,69.42
2022-08-05T20:53:56.698Z,69.54
2022-08-05T20:56:29.949Z,69.82
2022-08-05T20:59:00.021Z,70.69
2022-08-05T21:01:41.109Z,70.02
2022-08-05T21:04:10.389Z,70.62
2022-08-05T21:06:37.544Z,70.74
2022-08-05T21:09:11.491Z,70.77
2022-08-05T21:12:07.138Z,71.27
2022-08-05T21:14:27.178Z,71.29
2022-08-05T21:16:53.631Z,71.35
2022-08-05T21:19:20.189Z,71.66
2022-08-05T21:21:50.869Z,71.76
2022-08-05T21:24:19.625Z,71.97
2022-08-05T21:26:53.444Z,72.74
2022-08-05T21:29:23.579Z,72.83
2022-08-05T21:31:53.492Z,73.09
2022-08-05T21:34:20.423Z,73.79
2022-08-05T21:36:49.154Z,73.64
2022-08-05T21:39:16.877Z,73.93
2022-08-05T21:42:01.094Z,73.65
2022-08-05T21:44:28.871Z,73.97
2022-08-05T21:46:58.349Z,74.82
2022-08-05T21:50:00.164Z,75.35
2022-08-05T21:52:22.552Z,76.20
2022-08-05T21:54:55.127Z,76.60
2022-08-05T21:57:31.501Z,77.66
2022-08-05T22:00:10.787Z,78.84
2022-08-05T22:02:38.111Z,78.70
2022-08-05T22:05:05.999Z,79.28
2022-08-05T22:07:40.420Z,79.46
2022-08-05T22:10:26.643Z,79.46
2022-08-05T22:12:58.715Z,79.96
2022-08-05T22:16:01.845Z,80.56
2022-08-05T22:18:12.913Z,79.85
2022-08-05T22:20:41.652Z,80.22
2022-08-05T22:24:00.714Z,80.34
2022-08-05T22:26:33.600Z,79.81
2022-08-05T22:29:00.275Z,80.34
2022-08-05T22:31:30.040Z,79.96
2022-08-05T22:34:01.373Z,79.89
2022-08-05T22:36:28.953Z,79.95
2022-08-05T22:38:55.760Z,79.80
2022-08-05T22:42:05.606Z,79.63
2022-08-05T22:44:09.295Z,79.27
2022-08-05T22:46:39.884Z,79.02
2022-08-05T22:49:23.566Z,79.38
2022-08-05T22:52:04.499Z,79.96
2022-08-05T22:54:33.494Z,80.85
2022-08-05T22:56:59.999Z,81.56
2022-08-05T22:59:45.975Z,82.17
2022-08-05T23:02:13.708Z,83.08
2022-08-05T23:04:43.052Z,84.76
2022-08-05T23:07:18.411Z,84.13
2022-08-05T23:09:57.826Z,84.78
2022-08-05T23:12:32.843Z,84.67
2022-08-05T23:15:08.813Z,84.83
2022-08-05T23:17:59.725Z,84.51
2022-08-05T23:20:24.422Z,84.38
2022-08-05T23:22:55.682Z,84.34
2022-08-05T23:25:52.910Z,84.62
2022-08-05T23:28:11.472Z,84.45
2022-08-05T23:30:40.034Z,83.80
2022-08-05T23:33:22.292Z,83.56
2022-08-05T23:35:56.093Z,84.03
2022-08-05T23:38:24.213Z,84.54
2022-08-05T23:40:52.608Z,84.69
2022-08-05T23:43:25.500Z,83.93
2022-08-05T23:46:17.609Z,83.81
2022-08-05T23:48:59.943Z,83.59
2022-08-05T23:51:53.552Z,83.55
2022-08-05T23:54:26.648Z,82.90
2022-08-05T23:57:03.178Z,82.24
